createdAt,value
2019-02-15T00:00:58.276Z,1.50
2019-02-15T00:03:30.074Z,2.13
2019-02-15T00:06:01.881Z,1.60
2019-02-15T00:08:33.640Z,2.13
2019-02-15T00:11:05.395Z,1.90
2019-02-15T00:13:37.247Z,1.90
2019-02-15T00:16:08.985Z,1.80
2019-02-15T00:18:56.857Z,1.93
2019-02-15T00:21:31.573Z,1.40
2019-02-15T00:24:03.346Z,1.67
2019-02-15T00:26:35.049Z,1.43
2019-02-15T00:29:06.787Z,1.63
2019-02-15T00:31:38.634Z,1.30
2019-02-15T00:34:10.523Z,1.27
2019-02-15T00:36:42.287Z,1.10
2019-02-15T00:39:15.732Z,1.47
2019-02-15T00:41:47.780Z,1.60
2019-02-15T00:44:19.432Z,1.20
2019-02-15T00:47:09.187Z,1.60
2019-02-15T00:49:49.008Z,1.53
2019-02-15T00:52:39.842Z,1.30
2019-02-15T00:55:29.534Z,1.63
2019-02-15T00:58:27.503Z,1.57
2019-02-15T01:01:17.166Z,1.57
2019-02-15T01:04:05.075Z,1.40
2019-02-15T01:06:46.857Z,1.40
2019-02-15T01:09:26.211Z,1.50
2019-02-15T01:12:06.703Z,1.20
2019-02-15T01:14:38.544Z,1.30
2019-02-15T01:17:10.810Z,1.60
2019-02-15T01:19:42.515Z,1.30
2019-02-15T01:22:14.203Z,1.60
2019-02-15T01:24:46.017Z,1.40
2019-02-15T01:27:36.584Z,1.13
2019-02-15T01:30:42.840Z,1.30
2019-02-15T01:33:49.012Z,1.30
2019-02-15T01:36:39.591Z,1.00
2019-02-15T01:39:40.482Z,1.47
2019-02-15T01:42:23.316Z,1.50
2019-02-15T01:45:06.717Z,1.60
2019-02-15T01:47:41.882Z,1.40
2019-02-15T01:50:13.747Z,1.40
2019-02-15T01:52:45.405Z,1.43
2019-02-15T01:55:17.187Z,1.43
2019-02-15T01:57:48.852Z,1.47
2019-02-15T02:00:22.226Z,1.10
2019-02-15T02:02:53.876Z,1.13
2019-02-15T02:05:25.567Z,1.20
2019-02-15T02:07:57.310Z,1.00
2019-02-15T02:10:29.025Z,1.30
2019-02-15T02:13:00.666Z,1.20
2019-02-15T02:15:32.526Z,1.33
2019-02-15T02:18:04.207Z,1.30
2019-02-15T02:20:36.048Z,1.00
2019-02-15T02:23:07.831Z,1.13
2019-02-15T02:25:39.517Z,1.20
2019-02-15T02:28:11.208Z,1.20
2019-02-15T02:30:42.940Z,1.30
2019-02-15T02:33:14.675Z,0.90
2019-02-15T02:35:46.441Z,1.13
2019-02-15T02:38:18.135Z,1.10
2019-02-15T02:40:49.786Z,1.10
2019-02-15T02:43:21.467Z,1.10
2019-02-15T02:45:53.193Z,1.23
2019-02-15T02:48:26.164Z,1.20
2019-02-15T02:50:57.824Z,1.20
2019-02-15T02:53:30.718Z,1.00
2019-02-15T02:56:02.433Z,1.10
2019-02-15T02:58:34.152Z,1.03
2019-02-15T03:01:05.906Z,1.00
2019-02-15T03:03:37.582Z,1.10
2019-02-15T03:06:09.244Z,1.07
2019-02-15T03:08:41.038Z,1.10
2019-02-15T03:11:12.753Z,1.00
2019-02-15T03:13:44.427Z,1.03
2019-02-15T03:16:16.141Z,1.07
2019-02-15T03:18:47.945Z,1.27
2019-02-15T03:21:19.721Z,0.93
2019-02-15T03:23:51.394Z,1.30
2019-02-15T03:26:23.024Z,0.90
2019-02-15T03:28:54.797Z,1.23
2019-02-15T03:31:26.667Z,0.97
2019-02-15T03:33:58.414Z,0.97
2019-02-15T03:36:55.045Z,0.90
2019-02-15T03:39:45.499Z,1.00
2019-02-15T03:42:17.197Z,1.03
2019-02-15T03:44:48.852Z,1.17
2019-02-15T03:47:23.395Z,1.23
2019-02-15T03:49:55.051Z,1.00
2019-02-15T03:52:26.804Z,0.90
2019-02-15T03:54:58.507Z,1.23
2019-02-15T03:57:30.399Z,1.30
2019-02-15T04:00:02.034Z,1.07
2019-02-15T04:02:33.700Z,1.10
2019-02-15T04:05:05.804Z,1.30
2019-02-15T04:07:37.591Z,1.20
2019-02-15T04:10:10.400Z,1.37
2019-02-15T04:12:42.107Z,1.03
2019-02-15T04:15:13.815Z,1.13
2019-02-15T04:17:45.512Z,1.30
2019-02-15T04:20:17.228Z,1.30
2019-02-15T04:22:48.907Z,1.20
2019-02-15T04:25:20.560Z,1.57
2019-02-15T04:27:52.217Z,1.40
2019-02-15T04:30:23.911Z,1.40
2019-02-15T04:32:55.677Z,1.50
2019-02-15T04:35:27.290Z,1.53
2019-02-15T04:37:59.009Z,1.70
2019-02-15T04:40:30.647Z,1.40
2019-02-15T04:43:02.332Z,1.70
2019-02-15T04:45:34.068Z,1.40
2019-02-15T04:48:06.722Z,1.60
2019-02-15T04:50:38.403Z,1.57
2019-02-15T04:53:10.100Z,1.87
2019-02-15T04:55:41.742Z,1.60
2019-02-15T04:58:13.399Z,1.80
2019-02-15T05:00:45.161Z,1.77
2019-02-15T05:03:19.483Z,1.60
2019-02-15T05:05:50.274Z,1.80
2019-02-15T05:08:22.052Z,2.00
2019-02-15T05:10:53.791Z,1.70
2019-02-15T05:13:25.527Z,1.83
2019-02-15T05:15:57.287Z,2.13
2019-02-15T05:18:28.947Z,1.97
2019-02-15T05:21:00.678Z,2.03
2019-02-15T05:23:32.318Z,2.20
2019-02-15T05:26:04.214Z,2.07
2019-02-15T05:28:35.870Z,2.00
2019-02-15T05:31:07.651Z,2.50
2019-02-15T05:33:39.436Z,4.60
2019-02-15T05:36:11.269Z,3.00
2019-02-15T05:38:42.946Z,2.60
2019-02-15T05:41:14.687Z,3.63
2019-02-15T05:43:46.453Z,3.40
2019-02-15T05:46:18.340Z,2.80
2019-02-15T05:48:50.013Z,2.30
2019-02-15T05:51:21.724Z,3.17
2019-02-15T05:53:53.596Z,3.17
2019-02-15T05:56:25.379Z,2.73
2019-02-15T05:58:57.049Z,4.67
2019-02-15T06:01:29.724Z,4.47
2019-02-15T06:04:01.401Z,3.77
2019-02-15T06:06:33.036Z,3.77
2019-02-15T06:09:05.647Z,2.77
2019-02-15T06:11:37.486Z,2.93
2019-02-15T06:14:09.200Z,2.63
2019-02-15T06:16:40.910Z,2.70
2019-02-15T06:19:12.614Z,3.07
2019-02-15T06:21:44.277Z,3.47
2019-02-15T06:24:16.013Z,3.33
2019-02-15T06:26:47.825Z,3.57
2019-02-15T06:29:19.597Z,4.47
2019-02-15T06:31:51.508Z,3.63
2019-02-15T06:34:29.313Z,3.00
2019-02-15T06:37:01.276Z,3.07
2019-02-15T06:39:33.291Z,3.03
2019-02-15T06:42:05.012Z,3.47
2019-02-15T06:44:36.645Z,2.87
2019-02-15T06:47:08.301Z,3.00
2019-02-15T06:49:40.068Z,2.90
2019-02-15T06:52:11.694Z,3.37
2019-02-15T06:54:43.396Z,3.10
2019-02-15T06:57:15.042Z,4.37
2019-02-15T07:00:11.556Z,3.20
2019-02-15T07:02:51.351Z,3.50
2019-02-15T07:05:29.286Z,3.27
2019-02-15T07:08:01.014Z,3.20
2019-02-15T07:10:32.710Z,4.00
2019-02-15T07:13:04.569Z,2.90
2019-02-15T07:15:36.217Z,3.03
2019-02-15T07:18:08.007Z,3.27
2019-02-15T07:20:39.818Z,3.30
2019-02-15T07:23:11.479Z,3.77
2019-02-15T07:25:43.165Z,3.40
2019-02-15T07:28:16.436Z,3.90
2019-02-15T07:30:48.077Z,3.53
2019-02-15T07:33:19.751Z,3.47
2019-02-15T07:35:51.423Z,3.90
2019-02-15T07:38:23.074Z,4.03
2019-02-15T07:40:54.771Z,4.13
2019-02-15T07:43:26.487Z,4.43
2019-02-15T07:45:58.266Z,6.20
2019-02-15T07:48:30.012Z,6.20
2019-02-15T07:51:09.363Z,4.83
2019-02-15T07:53:35.152Z,9.10
2019-02-15T07:56:06.876Z,5.70
2019-02-15T07:58:38.681Z,5.63
2019-02-15T08:01:10.299Z,6.07
2019-02-15T08:03:42.081Z,9.10
2019-02-15T08:06:13.934Z,8.17
2019-02-15T08:08:45.723Z,6.67
2019-02-15T08:11:17.441Z,7.13
2019-02-15T08:13:49.131Z,6.30
2019-02-15T08:16:20.799Z,5.83
2019-02-15T08:18:53.050Z,6.53
2019-02-15T08:21:24.731Z,6.43
2019-02-15T08:23:56.465Z,14.60
2019-02-15T08:26:28.367Z,6.70
2019-02-15T08:29:00.062Z,5.10
2019-02-15T08:31:31.723Z,3.43
2019-02-15T08:34:05.948Z,2.60
2019-02-15T08:36:37.637Z,1.70
2019-02-15T08:39:09.845Z,1.90
2019-02-15T08:41:41.707Z,1.70
2019-02-15T08:44:13.531Z,1.40
2019-02-15T08:46:45.449Z,1.53
2019-02-15T08:49:17.280Z,1.40
2019-02-15T08:51:52.044Z,1.87
2019-02-15T08:54:29.210Z,1.30
2019-02-15T08:57:00.941Z,1.03
2019-02-15T08:59:36.807Z,1.50
2019-02-15T09:02:27.700Z,1.20
2019-02-15T09:05:02.109Z,1.33
2019-02-15T09:07:34.161Z,1.50
2019-02-15T09:10:07.392Z,1.20
2019-02-15T09:12:39.325Z,1.20
2019-02-15T09:15:17.971Z,1.30
2019-02-15T09:17:49.779Z,1.10
2019-02-15T09:20:21.639Z,1.20
2019-02-15T09:22:53.393Z,1.83
2019-02-15T09:25:25.084Z,1.37
2019-02-15T09:28:15.721Z,1.30
2019-02-15T09:30:51.649Z,1.63
2019-02-15T09:33:23.648Z,1.20
2019-02-15T09:35:57.338Z,1.23
2019-02-15T09:38:29.084Z,1.17
2019-02-15T09:41:01.653Z,1.20
2019-02-15T09:43:33.617Z,1.50
2019-02-15T09:46:05.405Z,1.33
2019-02-15T09:48:37.084Z,1.30
2019-02-15T09:51:08.836Z,1.67
2019-02-15T09:53:40.669Z,1.40
2019-02-15T09:56:12.580Z,1.50
2019-02-15T09:58:44.286Z,1.40
2019-02-15T10:01:16.005Z,1.53
2019-02-15T10:03:47.718Z,1.70
2019-02-15T10:06:19.376Z,1.20
2019-02-15T10:08:51.183Z,1.30
2019-02-15T10:11:23.316Z,1.42
2019-02-15T10:13:55.237Z,1.40
2019-02-15T10:16:30.757Z,1.00
2019-02-15T10:19:00.510Z,1.10
2019-02-15T10:21:32.528Z,1.50
2019-02-15T10:24:04.543Z,1.50
2019-02-15T10:26:36.377Z,1.20
2019-02-15T10:29:08.405Z,1.27
2019-02-15T10:31:40.126Z,1.20
2019-02-15T10:34:11.793Z,1.20
2019-02-15T10:36:43.807Z,1.33
2019-02-15T10:39:16.108Z,1.20
2019-02-15T10:41:48.350Z,1.10
2019-02-15T10:44:20.577Z,1.50
2019-02-15T10:46:53.024Z,1.55
2019-02-15T10:49:25.464Z,1.32
2019-02-15T10:51:57.920Z,1.27
2019-02-15T10:54:30.030Z,1.20
2019-02-15T10:57:02.356Z,0.95
2019-02-15T10:59:34.790Z,3.02
2019-02-15T11:02:07.067Z,1.40
2019-02-15T11:04:41.099Z,1.70
2019-02-15T11:07:13.831Z,1.20
2019-02-15T11:09:46.115Z,1.60
2019-02-15T11:12:18.441Z,1.10
2019-02-15T11:14:50.759Z,1.05
2019-02-15T11:17:23.466Z,1.00
2019-02-15T11:19:55.818Z,1.05
2019-02-15T11:22:28.208Z,1.20
2019-02-15T11:25:00.860Z,1.40
2019-02-15T11:27:35.881Z,1.00
2019-02-15T11:30:11.734Z,1.40
2019-02-15T11:32:46.184Z,1.40
2019-02-15T11:35:18.429Z,1.62
2019-02-15T11:37:50.695Z,1.20
2019-02-15T11:40:25.464Z,1.40
2019-02-15T11:42:59.054Z,1.70
2019-02-15T11:45:32.742Z,1.40
2019-02-15T11:48:05.229Z,1.70
2019-02-15T11:50:37.796Z,1.40
2019-02-15T11:53:10.143Z,1.47
2019-02-15T11:55:43.883Z,0.90
2019-02-15T11:58:16.108Z,1.30
2019-02-15T12:00:48.396Z,1.30
2019-02-15T12:03:20.971Z,1.20
2019-02-15T12:05:53.209Z,1.30
2019-02-15T12:08:25.572Z,1.25
2019-02-15T12:10:57.941Z,1.40
2019-02-15T12:13:30.287Z,1.30
2019-02-15T12:16:02.565Z,1.12
2019-02-15T12:18:35.021Z,1.17
2019-02-15T12:21:07.345Z,1.85
2019-02-15T12:23:39.668Z,1.50
2019-02-15T12:26:12.011Z,1.47
2019-02-15T12:28:44.402Z,1.35
2019-02-15T12:31:16.804Z,1.10
2019-02-15T12:33:49.150Z,1.35
2019-02-15T12:36:21.443Z,1.32
2019-02-15T12:38:53.803Z,1.10
2019-02-15T12:41:26.168Z,1.12
2019-02-15T12:43:58.410Z,1.30
2019-02-15T12:46:30.835Z,1.37
2019-02-15T12:49:03.208Z,1.40
2019-02-15T12:51:35.683Z,1.50
2019-02-15T12:54:08.163Z,1.45
2019-02-15T12:56:40.484Z,1.10
2019-02-15T12:59:12.821Z,1.15
2019-02-15T13:01:45.186Z,1.50
2019-02-15T13:04:17.620Z,1.55
2019-02-15T13:06:50.083Z,1.50
2019-02-15T13:09:22.443Z,1.30
2019-02-15T13:11:54.780Z,1.30
2019-02-15T13:14:27.144Z,1.30
2019-02-15T13:16:59.402Z,1.50
2019-02-15T13:19:32.017Z,1.60
2019-02-15T13:22:04.297Z,1.50
2019-02-15T13:24:36.687Z,11.00
2019-02-15T13:27:09.020Z,2.37
2019-02-15T13:29:41.369Z,1.80
2019-02-15T13:32:13.780Z,1.67
2019-02-15T13:34:46.141Z,1.22
2019-02-15T13:37:18.456Z,1.50
2019-02-15T13:39:50.750Z,1.27
2019-02-15T13:42:23.096Z,2.30
2019-02-15T13:44:55.560Z,1.72
2019-02-15T13:47:34.174Z,1.55
2019-02-15T13:50:04.167Z,1.50
2019-02-15T13:52:36.580Z,1.30
2019-02-15T13:55:09.518Z,1.40
2019-02-15T13:57:42.005Z,1.75
2019-02-15T14:00:14.417Z,1.40
2019-02-15T14:02:46.889Z,1.65
2019-02-15T14:05:19.375Z,1.60
2019-02-15T14:07:51.727Z,1.40
2019-02-15T14:10:24.114Z,10.13
2019-02-15T14:12:56.452Z,2.15
2019-02-15T14:15:28.908Z,1.50
2019-02-15T14:18:01.315Z,1.22
2019-02-15T14:20:33.811Z,1.90
2019-02-15T14:23:06.127Z,1.50
2019-02-15T14:25:38.578Z,1.40
2019-02-15T14:28:11.484Z,1.10
2019-02-15T14:30:43.866Z,1.40
2019-02-15T14:33:16.285Z,1.10
2019-02-15T14:35:48.657Z,1.80
2019-02-15T14:38:21.040Z,1.30
2019-02-15T14:40:53.510Z,1.45
2019-02-15T14:43:26.143Z,1.15
2019-02-15T14:45:58.631Z,1.30
2019-02-15T14:48:31.077Z,1.22
2019-02-15T14:51:05.071Z,1.12
2019-02-15T14:53:37.555Z,2.65
2019-02-15T14:56:09.963Z,1.67
2019-02-15T14:58:42.492Z,2.85
2019-02-15T15:01:15.313Z,1.50
2019-02-15T15:03:47.696Z,1.45
2019-02-15T15:06:21.265Z,1.30
2019-02-15T15:08:53.512Z,1.17
2019-02-15T15:11:25.990Z,1.57
2019-02-15T15:13:58.401Z,1.60
2019-02-15T15:16:31.169Z,1.10
2019-02-15T15:19:03.468Z,1.20
2019-02-15T15:21:35.734Z,1.35
2019-02-15T15:24:08.256Z,1.30
2019-02-15T15:26:40.549Z,1.32
2019-02-15T15:29:13.536Z,1.30
2019-02-15T15:31:45.226Z,1.13
2019-02-15T15:34:19.051Z,1.20
2019-02-15T15:36:50.994Z,1.10
2019-02-15T15:39:22.732Z,1.23
2019-02-15T15:41:54.581Z,1.23
2019-02-15T15:44:26.466Z,1.13
2019-02-15T15:46:58.268Z,1.70
2019-02-15T15:49:30.077Z,1.50
2019-02-15T15:52:01.774Z,1.13
2019-02-15T15:54:33.641Z,1.17
2019-02-15T15:57:05.315Z,1.17
2019-02-15T15:59:37.101Z,1.17
2019-02-15T16:02:08.941Z,1.07
2019-02-15T16:04:40.766Z,1.00
2019-02-15T16:07:12.532Z,2.03
2019-02-15T16:09:44.536Z,1.50
2019-02-15T16:12:16.312Z,1.20
2019-02-15T16:14:48.114Z,1.53
2019-02-15T16:17:21.561Z,1.23
2019-02-15T16:19:53.695Z,1.40
2019-02-15T16:22:26.101Z,1.23
2019-02-15T16:24:59.124Z,1.40
2019-02-15T16:27:31.004Z,1.37
2019-02-15T16:30:02.731Z,0.97
2019-02-15T16:32:35.489Z,1.10
2019-02-15T16:35:08.077Z,1.43
2019-02-15T16:37:40.099Z,1.40
2019-02-15T16:40:13.241Z,1.33
2019-02-15T16:42:47.146Z,1.40
2019-02-15T16:45:19.069Z,2.10
2019-02-15T16:47:50.943Z,1.57
2019-02-15T16:50:34.659Z,1.40
2019-02-15T16:53:06.528Z,2.30
2019-02-15T16:55:38.371Z,1.70
2019-02-15T16:58:10.228Z,1.37
2019-02-15T17:00:41.982Z,1.40
2019-02-15T17:03:37.660Z,1.50
2019-02-15T17:06:09.657Z,1.43
2019-02-15T17:08:41.434Z,1.27
2019-02-15T17:11:14.633Z,1.20
2019-02-15T17:13:46.539Z,1.17
2019-02-15T17:16:18.331Z,1.70
2019-02-15T17:18:52.230Z,1.60
2019-02-15T17:21:23.586Z,1.87
2019-02-15T17:23:55.750Z,2.47
2019-02-15T17:26:27.831Z,1.73
2019-02-15T17:29:06.019Z,2.60
2019-02-15T17:31:37.854Z,2.57
2019-02-15T17:34:09.751Z,2.17
2019-02-15T17:36:41.592Z,2.63
2019-02-15T17:39:13.567Z,3.10
2019-02-15T17:41:45.421Z,3.10
2019-02-15T17:44:17.303Z,3.43
2019-02-15T17:46:50.957Z,3.30
2019-02-15T17:49:22.783Z,3.90
2019-02-15T17:51:54.863Z,3.47
2019-02-15T17:54:27.957Z,3.70
2019-02-15T17:56:59.878Z,3.73
2019-02-15T17:59:32.050Z,4.37
2019-02-15T18:02:04.601Z,4.73
2019-02-15T18:04:36.276Z,6.23
2019-02-15T18:07:08.179Z,6.97
2019-02-15T18:09:39.931Z,7.57
2019-02-15T18:12:11.789Z,4.77
2019-02-15T18:14:44.050Z,4.63
2019-02-15T18:17:15.980Z,4.30
2019-02-15T18:19:48.033Z,4.57
2019-02-15T18:22:19.710Z,3.97
2019-02-15T18:24:51.561Z,3.87
2019-02-15T18:27:23.349Z,2.70
2019-02-15T18:29:55.130Z,2.30
2019-02-15T18:32:26.965Z,2.40
2019-02-15T18:35:00.378Z,1.87
2019-02-15T18:37:32.311Z,2.00
2019-02-15T18:40:04.549Z,2.07
2019-02-15T18:42:36.473Z,2.30
2019-02-15T18:45:09.825Z,3.93
2019-02-15T18:47:41.554Z,3.27
2019-02-15T18:50:13.592Z,2.93
2019-02-15T18:52:45.412Z,2.30
2019-02-15T18:55:17.163Z,1.60
2019-02-15T18:57:49.091Z,1.40
2019-02-15T19:00:21.524Z,1.23
2019-02-15T19:02:53.489Z,1.90
2019-02-15T19:05:25.220Z,1.50
2019-02-15T19:07:57.098Z,1.47
2019-02-15T19:10:28.861Z,1.80
2019-02-15T19:13:00.641Z,1.30
2019-02-15T19:15:32.468Z,1.63
2019-02-15T19:18:04.231Z,1.60
2019-02-15T19:20:35.974Z,1.27
2019-02-15T19:23:09.123Z,1.40
2019-02-15T19:25:41.052Z,1.50
2019-02-15T19:28:12.918Z,1.60
2019-02-15T19:30:44.664Z,1.70
2019-02-15T19:33:16.552Z,1.30
2019-02-15T19:35:48.486Z,1.70
2019-02-15T19:38:20.308Z,1.50
2019-02-15T19:40:52.106Z,1.50
2019-02-15T19:43:23.873Z,1.40
2019-02-15T19:45:56.317Z,1.40
2019-02-15T19:48:28.127Z,1.60
2019-02-15T19:50:59.839Z,1.50
2019-02-15T19:53:31.576Z,1.50
2019-02-15T19:56:06.047Z,2.07
2019-02-15T19:58:37.860Z,1.80
2019-02-15T20:01:09.754Z,1.60
2019-02-15T20:03:41.674Z,1.50
2019-02-15T20:06:13.572Z,1.80
2019-02-15T20:08:46.192Z,1.70
2019-02-15T20:11:17.992Z,1.67
2019-02-15T20:13:49.861Z,1.30
2019-02-15T20:16:21.620Z,1.90
2019-02-15T20:18:53.496Z,1.50
2019-02-15T20:21:25.333Z,1.77
2019-02-15T20:23:57.055Z,1.47
2019-02-15T20:26:28.852Z,1.50
2019-02-15T20:29:00.761Z,1.67
2019-02-15T20:31:32.552Z,1.60
2019-02-15T20:34:04.511Z,1.43
2019-02-15T20:36:36.384Z,1.70
2019-02-15T20:39:08.291Z,1.90
2019-02-15T20:41:40.140Z,1.80
2019-02-15T20:44:12.442Z,1.60
2019-02-15T20:46:45.627Z,1.97
2019-02-15T20:49:18.049Z,1.83
2019-02-15T20:51:50.015Z,2.00
2019-02-15T20:54:21.898Z,1.63
2019-02-15T20:56:53.770Z,1.80
2019-02-15T20:59:25.647Z,1.80
2019-02-15T21:01:57.378Z,2.10
2019-02-15T21:04:29.308Z,2.03
2019-02-15T21:07:01.067Z,2.03
2019-02-15T21:09:33.525Z,1.87
2019-02-15T21:12:05.591Z,1.80
2019-02-15T21:14:37.538Z,2.13
2019-02-15T21:17:08.631Z,2.50
2019-02-15T21:19:40.666Z,2.37
2019-02-15T21:22:12.458Z,2.43
2019-02-15T21:24:44.185Z,2.23
2019-02-15T21:27:16.388Z,2.10
2019-02-15T21:29:48.400Z,2.57
2019-02-15T21:32:20.346Z,2.30
2019-02-15T21:34:52.382Z,2.53
2019-02-15T21:37:24.173Z,2.20
2019-02-15T21:39:56.417Z,2.60
2019-02-15T21:42:28.204Z,2.40
2019-02-15T21:44:59.988Z,2.37
2019-02-15T21:47:31.741Z,2.20
2019-02-15T21:50:03.678Z,2.50
2019-02-15T21:52:43.759Z,2.30
2019-02-15T21:55:09.194Z,2.70
2019-02-15T21:57:41.274Z,2.43
2019-02-15T22:00:16.473Z,2.60
2019-02-15T22:02:48.363Z,2.73
2019-02-15T22:05:20.180Z,2.10
2019-02-15T22:07:51.992Z,3.10
2019-02-15T22:10:23.843Z,3.00
2019-02-15T22:12:55.677Z,2.93
2019-02-15T22:15:27.441Z,2.80
2019-02-15T22:17:59.228Z,2.90
2019-02-15T22:20:30.957Z,2.77
2019-02-15T22:23:02.768Z,2.70
2019-02-15T22:25:34.496Z,2.60
2019-02-15T22:28:06.239Z,2.63
2019-02-15T22:30:38.151Z,2.90
2019-02-15T22:33:09.971Z,2.97
2019-02-15T22:35:42.146Z,2.53
2019-02-15T22:38:14.059Z,3.70
2019-02-15T22:40:47.296Z,3.30
2019-02-15T22:43:22.186Z,3.20
2019-02-15T22:45:54.024Z,3.00
2019-02-15T22:48:25.733Z,2.67
2019-02-15T22:50:57.558Z,3.30
2019-02-15T22:53:29.400Z,2.70
2019-02-15T22:56:01.182Z,2.87
2019-02-15T22:58:33.139Z,3.30
2019-02-15T23:01:11.439Z,3.60
2019-02-15T23:03:43.444Z,2.73
2019-02-15T23:06:15.270Z,3.20
2019-02-15T23:08:47.122Z,3.20
2019-02-15T23:11:18.835Z,2.97
2019-02-15T23:13:50.689Z,3.00
2019-02-15T23:16:41.503Z,3.37
2019-02-15T23:19:13.449Z,3.80
2019-02-15T23:21:45.137Z,3.50
2019-02-15T23:24:16.950Z,3.27
2019-02-15T23:26:48.684Z,3.10
2019-02-15T23:29:20.491Z,3.30
2019-02-15T23:31:52.230Z,3.37
2019-02-15T23:34:23.966Z,3.57
2019-02-15T23:36:55.669Z,3.70
2019-02-15T23:39:27.466Z,3.07
2019-02-15T23:41:59.237Z,3.00
2019-02-15T23:44:31.511Z,3.70
2019-02-15T23:47:03.283Z,3.47
2019-02-15T23:49:35.097Z,3.03
2019-02-15T23:52:06.797Z,3.43
2019-02-15T23:54:38.581Z,3.20
2019-02-15T23:57:11.581Z,3.03
2019-02-15T23:59:43.240Z,3.13
